sensor_id;sensor_type;location;lat;lon;timestamp;P1;durP1;ratioP1;P2;durP2;ratioP2
39362;SDS011;25088;43.238;23.110;2023-12-04T00:01:35;0.40;;;0.40;;
39362;SDS011;25088;43.238;23.110;2023-12-04T00:04:07;0.45;;;0.45;;
39362;SDS011;25088;43.238;23.110;2023-12-04T00:06:32;0.40;;;0.40;;
39362;SDS011;25088;43.238;23.110;2023-12-04T00:08:58;0.40;;;0.40;;
39362;SDS011;25088;43.238;23.110;2023-12-04T00:11:23;0.40;;;0.40;;
39362;SDS011;25088;43.238;23.110;2023-12-04T00:13:49;0.40;;;0.40;;
39362;SDS011;25088;43.238;23.110;2023-12-04T00:16:14;0.40;;;0.40;;
39362;SDS011;25088;43.238;23.110;2023-12-04T00:18:40;0.40;;;0.40;;
39362;SDS011;25088;43.238;23.110;2023-12-04T00:21:05;0.40;;;0.40;;
39362;SDS011;25088;43.238;23.110;2023-12-04T00:23:30;0.40;;;0.40;;
39362;SDS011;25088;43.238;23.110;2023-12-04T00:25:56;0.40;;;0.40;;
39362;SDS011;25088;43.238;23.110;2023-12-04T00:28:21;0.40;;;0.40;;
39362;SDS011;25088;43.238;23.110;2023-12-04T00:30:47;0.45;;;0.45;;
39362;SDS011;25088;43.238;23.110;2023-12-04T00:33:13;0.40;;;0.40;;
39362;SDS011;25088;43.238;23.110;2023-12-04T00:35:38;0.40;;;0.40;;
39362;SDS011;25088;43.238;23.110;2023-12-04T00:38:04;0.40;;;0.40;;
39362;SDS011;25088;43.238;23.110;2023-12-04T00:40:29;0.40;;;0.40;;
39362;SDS011;25088;43.238;23.110;2023-12-04T00:42:55;0.40;;;0.40;;
39362;SDS011;25088;43.238;23.110;2023-12-04T00:45:20;0.40;;;0.40;;
39362;SDS011;25088;43.238;23.110;2023-12-04T00:47:45;0.40;;;0.40;;
39362;SDS011;25088;43.238;23.110;2023-12-04T00:50:11;0.40;;;0.40;;
39362;SDS011;25088;43.238;23.110;2023-12-04T00:52:37;0.40;;;0.40;;
39362;SDS011;25088;43.238;23.110;2023-12-04T00:55:02;0.40;;;0.40;;
39362;SDS011;25088;43.238;23.110;2023-12-04T00:57:28;0.40;;;0.40;;
39362;SDS011;25088;43.238;23.110;2023-12-04T00:59:53;0.50;;;0.50;;
39362;SDS011;25088;43.238;23.110;2023-12-04T01:02:19;0.40;;;0.40;;
39362;SDS011;25088;43.238;23.110;2023-12-04T01:04:44;0.40;;;0.40;;
39362;SDS011;25088;43.238;23.110;2023-12-04T01:07:10;0.43;;;0.43;;
39362;SDS011;25088;43.238;23.110;2023-12-04T01:09:36;0.40;;;0.40;;
39362;SDS011;25088;43.238;23.110;2023-12-04T01:12:02;0.40;;;0.40;;
39362;SDS011;25088;43.238;23.110;2023-12-04T01:14:27;0.40;;;0.40;;
39362;SDS011;25088;43.238;23.110;2023-12-04T01:16:53;0.40;;;0.40;;
39362;SDS011;25088;43.238;23.110;2023-12-04T01:19:19;0.40;;;0.40;;
39362;SDS011;25088;43.238;23.110;2023-12-04T01:21:44;0.40;;;0.40;;
39362;SDS011;25088;43.238;23.110;2023-12-04T01:24:10;0.40;;;0.40;;
39362;SDS011;25088;43.238;23.110;2023-12-04T01:26:36;0.40;;;0.40;;
39362;SDS011;25088;43.238;23.110;2023-12-04T01:29:02;0.40;;;0.40;;
39362;SDS011;25088;43.238;23.110;2023-12-04T01:31:27;0.40;;;0.40;;
39362;SDS011;25088;43.238;23.110;2023-12-04T01:33:53;0.40;;;0.40;;
39362;SDS011;25088;43.238;23.110;2023-12-04T01:36:18;0.40;;;0.40;;
39362;SDS011;25088;43.238;23.110;2023-12-04T01:38:43;0.50;;;0.50;;
39362;SDS011;25088;43.238;23.110;2023-12-04T01:41:09;0.40;;;0.40;;
39362;SDS011;25088;43.238;23.110;2023-12-04T01:43:34;0.50;;;0.50;;
39362;SDS011;25088;43.238;23.110;2023-12-04T01:46:00;0.50;;;0.50;;
39362;SDS011;25088;43.238;23.110;2023-12-04T01:48:26;0.40;;;0.40;;
39362;SDS011;25088;43.238;23.110;2023-12-04T01:50:53;0.40;;;0.40;;
39362;SDS011;25088;43.238;23.110;2023-12-04T01:53:20;0.50;;;0.50;;
39362;SDS011;25088;43.238;23.110;2023-12-04T01:55:46;0.50;;;0.50;;
39362;SDS011;25088;43.238;23.110;2023-12-04T01:58:11;0.40;;;0.40;;
39362;SDS011;25088;43.238;23.110;2023-12-04T02:00:37;0.43;;;0.43;;
39362;SDS011;25088;43.238;23.110;2023-12-04T02:03:03;0.40;;;0.40;;
39362;SDS011;25088;43.238;23.110;2023-12-04T02:05:28;0.40;;;0.40;;
39362;SDS011;25088;43.238;23.110;2023-12-04T02:07:54;0.40;;;0.40;;
39362;SDS011;25088;43.238;23.110;2023-12-04T02:10:23;0.40;;;0.40;;
39362;SDS011;25088;43.238;23.110;2023-12-04T02:12:49;0.50;;;0.50;;
39362;SDS011;25088;43.238;23.110;2023-12-04T02:15:15;0.40;;;0.40;;
39362;SDS011;25088;43.238;23.110;2023-12-04T02:17:42;0.50;;;0.50;;
39362;SDS011;25088;43.238;23.110;2023-12-04T02:20:09;0.50;;;0.50;;
39362;SDS011;25088;43.238;23.110;2023-12-04T02:22:35;0.50;;;0.50;;
39362;SDS011;25088;43.238;23.110;2023-12-04T02:25:02;0.50;;;0.50;;
39362;SDS011;25088;43.238;23.110;2023-12-04T02:27:34;0.50;;;0.50;;
39362;SDS011;25088;43.238;23.110;2023-12-04T02:30:10;0.50;;;0.50;;
39362;SDS011;25088;43.238;23.110;2023-12-04T02:32:38;0.50;;;0.50;;
39362;SDS011;25088;43.238;23.110;2023-12-04T02:35:09;0.50;;;0.50;;
39362;SDS011;25088;43.238;23.110;2023-12-04T02:37:36;0.50;;;0.50;;
39362;SDS011;25088;43.238;23.110;2023-12-04T02:40:02;0.60;;;0.60;;
39362;SDS011;25088;43.238;23.110;2023-12-04T02:42:28;0.50;;;0.50;;
39362;SDS011;25088;43.238;23.110;2023-12-04T02:44:54;0.60;;;0.60;;
39362;SDS011;25088;43.238;23.110;2023-12-04T02:47:19;0.60;;;0.60;;
39362;SDS011;25088;43.238;23.110;2023-12-04T02:49:45;0.52;;;0.52;;
39362;SDS011;25088;43.238;23.110;2023-12-04T02:52:10;0.50;;;0.50;;
39362;SDS011;25088;43.238;23.110;2023-12-04T02:54:36;0.50;;;0.50;;
39362;SDS011;25088;43.238;23.110;2023-12-04T02:57:01;0.50;;;0.50;;
39362;SDS011;25088;43.238;23.110;2023-12-04T02:59:27;0.50;;;0.50;;
39362;SDS011;25088;43.238;23.110;2023-12-04T03:01:52;0.50;;;0.50;;
39362;SDS011;25088;43.238;23.110;2023-12-04T03:04:21;0.50;;;0.50;;
39362;SDS011;25088;43.238;23.110;2023-12-04T03:06:46;0.50;;;0.50;;
39362;SDS011;25088;43.238;23.110;2023-12-04T03:09:12;0.57;;;0.57;;
39362;SDS011;25088;43.238;23.110;2023-12-04T03:11:40;0.50;;;0.50;;
39362;SDS011;25088;43.238;23.110;2023-12-04T03:14:06;0.50;;;0.50;;
39362;SDS011;25088;43.238;23.110;2023-12-04T03:16:32;0.50;;;0.50;;
39362;SDS011;25088;43.238;23.110;2023-12-04T03:18:57;0.50;;;0.50;;
39362;SDS011;25088;43.238;23.110;2023-12-04T03:21:23;0.50;;;0.50;;
39362;SDS011;25088;43.238;23.110;2023-12-04T03:23:49;0.50;;;0.50;;
39362;SDS011;25088;43.238;23.110;2023-12-04T03:26:14;0.50;;;0.50;;
39362;SDS011;25088;43.238;23.110;2023-12-04T03:28:39;0.50;;;0.50;;
39362;SDS011;25088;43.238;23.110;2023-12-04T03:31:05;0.50;;;0.50;;
39362;SDS011;25088;43.238;23.110;2023-12-04T03:33:31;0.50;;;0.50;;
39362;SDS011;25088;43.238;23.110;2023-12-04T03:35:58;0.50;;;0.50;;
39362;SDS011;25088;43.238;23.110;2023-12-04T03:38:24;0.50;;;0.50;;
39362;SDS011;25088;43.238;23.110;2023-12-04T03:40:50;0.50;;;0.50;;
39362;SDS011;25088;43.238;23.110;2023-12-04T03:43:15;0.50;;;0.50;;
39362;SDS011;25088;43.238;23.110;2023-12-04T03:45:41;0.50;;;0.50;;
39362;SDS011;25088;43.238;23.110;2023-12-04T03:48:06;0.50;;;0.50;;
39362;SDS011;25088;43.238;23.110;2023-12-04T03:50:32;0.50;;;0.50;;
39362;SDS011;25088;43.238;23.110;2023-12-04T03:52:57;0.50;;;0.50;;
39362;SDS011;25088;43.238;23.110;2023-12-04T03:55:23;0.50;;;0.50;;
39362;SDS011;25088;43.238;23.110;2023-12-04T03:57:48;0.50;;;0.50;;
39362;SDS011;25088;43.238;23.110;2023-12-04T04:00:14;0.50;;;0.50;;
39362;SDS011;25088;43.238;23.110;2023-12-04T04:02:40;0.40;;;0.40;;
39362;SDS011;25088;43.238;23.110;2023-12-04T04:05:07;0.50;;;0.50;;
39362;SDS011;25088;43.238;23.110;2023-12-04T04:07:33;0.50;;;0.50;;
39362;SDS011;25088;43.238;23.110;2023-12-04T04:09:58;0.50;;;0.50;;
39362;SDS011;25088;43.238;23.110;2023-12-04T04:12:24;0.40;;;0.40;;
39362;SDS011;25088;43.238;23.110;2023-12-04T04:14:49;0.50;;;0.50;;
39362;SDS011;25088;43.238;23.110;2023-12-04T04:17:15;0.50;;;0.50;;
39362;SDS011;25088;43.238;23.110;2023-12-04T04:19:40;0.43;;;0.43;;
39362;SDS011;25088;43.238;23.110;2023-12-04T04:22:06;0.47;;;0.47;;
39362;SDS011;25088;43.238;23.110;2023-12-04T04:24:31;0.50;;;0.50;;
39362;SDS011;25088;43.238;23.110;2023-12-04T04:26:57;0.50;;;0.50;;
39362;SDS011;25088;43.238;23.110;2023-12-04T04:29:22;0.50;;;0.50;;
39362;SDS011;25088;43.238;23.110;2023-12-04T04:31:48;0.50;;;0.50;;
39362;SDS011;25088;43.238;23.110;2023-12-04T04:34:13;0.50;;;0.50;;
39362;SDS011;25088;43.238;23.110;2023-12-04T04:36:39;0.50;;;0.50;;
39362;SDS011;25088;43.238;23.110;2023-12-04T04:39:04;0.50;;;0.50;;
39362;SDS011;25088;43.238;23.110;2023-12-04T04:41:30;0.50;;;0.50;;
39362;SDS011;25088;43.238;23.110;2023-12-04T04:43:55;0.50;;;0.50;;
39362;SDS011;25088;43.238;23.110;2023-12-04T04:46:21;0.50;;;0.50;;
39362;SDS011;25088;43.238;23.110;2023-12-04T04:48:46;0.50;;;0.50;;
39362;SDS011;25088;43.238;23.110;2023-12-04T04:51:11;0.45;;;0.45;;
39362;SDS011;25088;43.238;23.110;2023-12-04T04:53:37;0.50;;;0.50;;
39362;SDS011;25088;43.238;23.110;2023-12-04T04:56:03;0.50;;;0.50;;
39362;SDS011;25088;43.238;23.110;2023-12-04T04:58:29;0.50;;;0.50;;
39362;SDS011;25088;43.238;23.110;2023-12-04T05:00:54;0.50;;;0.50;;
39362;SDS011;25088;43.238;23.110;2023-12-04T05:03:20;0.50;;;0.50;;
39362;SDS011;25088;43.238;23.110;2023-12-04T05:05:45;0.50;;;0.50;;
39362;SDS011;25088;43.238;23.110;2023-12-04T05:08:11;0.47;;;0.47;;
39362;SDS011;25088;43.238;23.110;2023-12-04T05:10:38;0.50;;;0.50;;
39362;SDS011;25088;43.238;23.110;2023-12-04T05:13:04;0.50;;;0.50;;
39362;SDS011;25088;43.238;23.110;2023-12-04T05:15:29;0.50;;;0.50;;
39362;SDS011;25088;43.238;23.110;2023-12-04T05:17:55;0.40;;;0.40;;
39362;SDS011;25088;43.238;23.110;2023-12-04T05:20:20;0.40;;;0.40;;
39362;SDS011;25088;43.238;23.110;2023-12-04T05:22:46;0.50;;;0.50;;
39362;SDS011;25088;43.238;23.110;2023-12-04T05:25:11;0.50;;;0.50;;
39362;SDS011;25088;43.238;23.110;2023-12-04T05:27:36;0.50;;;0.50;;
39362;SDS011;25088;43.238;23.110;2023-12-04T05:30:02;0.50;;;0.50;;
39362;SDS011;25088;43.238;23.110;2023-12-04T05:32:28;0.50;;;0.50;;
39362;SDS011;25088;43.238;23.110;2023-12-04T05:34:53;0.50;;;0.50;;
39362;SDS011;25088;43.238;23.110;2023-12-04T05:37:19;0.50;;;0.50;;
39362;SDS011;25088;43.238;23.110;2023-12-04T05:39:44;0.47;;;0.47;;
39362;SDS011;25088;43.238;23.110;2023-12-04T05:42:09;0.50;;;0.50;;
39362;SDS011;25088;43.238;23.110;2023-12-04T05:44:35;0.50;;;0.50;;
39362;SDS011;25088;43.238;23.110;2023-12-04T05:47:00;0.50;;;0.50;;
39362;SDS011;25088;43.238;23.110;2023-12-04T05:49:26;0.40;;;0.40;;
39362;SDS011;25088;43.238;23.110;2023-12-04T05:51:51;0.50;;;0.50;;
39362;SDS011;25088;43.238;23.110;2023-12-04T05:54:17;0.50;;;0.50;;
39362;SDS011;25088;43.238;23.110;2023-12-04T05:56:42;0.50;;;0.50;;
39362;SDS011;25088;43.238;23.110;2023-12-04T05:59:08;0.50;;;0.50;;
39362;SDS011;25088;43.238;23.110;2023-12-04T06:01:33;0.50;;;0.50;;
39362;SDS011;25088;43.238;23.110;2023-12-04T06:03:59;0.50;;;0.50;;
39362;SDS011;25088;43.238;23.110;2023-12-04T06:06:24;0.50;;;0.50;;
39362;SDS011;25088;43.238;23.110;2023-12-04T06:08:50;0.43;;;0.43;;
39362;SDS011;25088;43.238;23.110;2023-12-04T06:11:15;0.50;;;0.50;;
39362;SDS011;25088;43.238;23.110;2023-12-04T06:13:41;0.40;;;0.40;;
39362;SDS011;25088;43.238;23.110;2023-12-04T06:16:06;0.47;;;0.47;;
39362;SDS011;25088;43.238;23.110;2023-12-04T06:18:32;0.40;;;0.40;;
39362;SDS011;25088;43.238;23.110;2023-12-04T06:20:58;0.50;;;0.50;;
39362;SDS011;25088;43.238;23.110;2023-12-04T06:23:23;0.40;;;0.40;;
39362;SDS011;25088;43.238;23.110;2023-12-04T06:25:49;0.50;;;0.50;;
39362;SDS011;25088;43.238;23.110;2023-12-04T06:28:15;0.50;;;0.50;;
39362;SDS011;25088;43.238;23.110;2023-12-04T06:30:41;0.50;;;0.50;;
39362;SDS011;25088;43.238;23.110;2023-12-04T06:33:07;0.50;;;0.50;;
39362;SDS011;25088;43.238;23.110;2023-12-04T06:35:33;0.50;;;0.50;;
39362;SDS011;25088;43.238;23.110;2023-12-04T06:37:59;0.50;;;0.50;;
39362;SDS011;25088;43.238;23.110;2023-12-04T06:40:32;0.40;;;0.40;;
39362;SDS011;25088;43.238;23.110;2023-12-04T06:42:58;0.50;;;0.50;;
39362;SDS011;25088;43.238;23.110;2023-12-04T06:45:23;0.50;;;0.50;;
39362;SDS011;25088;43.238;23.110;2023-12-04T06:47:50;0.50;;;0.50;;
39362;SDS011;25088;43.238;23.110;2023-12-04T06:50:16;0.40;;;0.40;;
39362;SDS011;25088;43.238;23.110;2023-12-04T06:52:42;0.40;;;0.40;;
39362;SDS011;25088;43.238;23.110;2023-12-04T06:55:08;0.40;;;0.40;;
39362;SDS011;25088;43.238;23.110;2023-12-04T06:57:33;0.40;;;0.40;;
39362;SDS011;25088;43.238;23.110;2023-12-04T06:59:59;0.50;;;0.50;;
39362;SDS011;25088;43.238;23.110;2023-12-04T07:02:25;0.40;;;0.40;;
39362;SDS011;25088;43.238;23.110;2023-12-04T07:04:50;0.40;;;0.40;;
39362;SDS011;25088;43.238;23.110;2023-12-04T07:07:15;0.40;;;0.40;;
39362;SDS011;25088;43.238;23.110;2023-12-04T07:09:41;0.40;;;0.40;;
39362;SDS011;25088;43.238;23.110;2023-12-04T07:12:06;0.40;;;0.40;;
39362;SDS011;25088;43.238;23.110;2023-12-04T07:14:32;0.40;;;0.40;;
39362;SDS011;25088;43.238;23.110;2023-12-04T07:16:58;0.40;;;0.40;;
39362;SDS011;25088;43.238;23.110;2023-12-04T07:19:25;0.45;;;0.45;;
39362;SDS011;25088;43.238;23.110;2023-12-04T07:21:52;0.40;;;0.40;;
39362;SDS011;25088;43.238;23.110;2023-12-04T07:24:17;0.40;;;0.40;;
39362;SDS011;25088;43.238;23.110;2023-12-04T07:26:43;0.50;;;0.50;;
39362;SDS011;25088;43.238;23.110;2023-12-04T07:29:08;0.40;;;0.40;;
39362;SDS011;25088;43.238;23.110;2023-12-04T07:31:34;0.40;;;0.40;;
39362;SDS011;25088;43.238;23.110;2023-12-04T07:33:59;0.40;;;0.40;;
39362;SDS011;25088;43.238;23.110;2023-12-04T07:36:26;0.40;;;0.40;;
39362;SDS011;25088;43.238;23.110;2023-12-04T07:38:52;0.40;;;0.40;;
39362;SDS011;25088;43.238;23.110;2023-12-04T07:41:19;0.40;;;0.40;;
39362;SDS011;25088;43.238;23.110;2023-12-04T07:43:44;0.40;;;0.40;;
39362;SDS011;25088;43.238;23.110;2023-12-04T07:46:10;0.40;;;0.40;;
39362;SDS011;25088;43.238;23.110;2023-12-04T07:48:39;0.40;;;0.40;;
39362;SDS011;25088;43.238;23.110;2023-12-04T07:51:05;0.40;;;0.40;;
39362;SDS011;25088;43.238;23.110;2023-12-04T07:53:32;0.30;;;0.30;;
39362;SDS011;25088;43.238;23.110;2023-12-04T07:55:57;0.40;;;0.40;;
39362;SDS011;25088;43.238;23.110;2023-12-04T07:58:27;0.40;;;0.40;;
39362;SDS011;25088;43.238;23.110;2023-12-04T08:00:53;0.40;;;0.40;;
39362;SDS011;25088;43.238;23.110;2023-12-04T08:03:18;0.30;;;0.30;;
39362;SDS011;25088;43.238;23.110;2023-12-04T08:05:44;0.30;;;0.30;;
39362;SDS011;25088;43.238;23.110;2023-12-04T08:08:09;0.30;;;0.30;;
39362;SDS011;25088;43.238;23.110;2023-12-04T08:10:34;0.30;;;0.30;;
39362;SDS011;25088;43.238;23.110;2023-12-04T08:13:00;0.40;;;0.40;;
39362;SDS011;25088;43.238;23.110;2023-12-04T08:15:25;0.30;;;0.30;;
39362;SDS011;25088;43.238;23.110;2023-12-04T08:17:51;0.30;;;0.30;;
39362;SDS011;25088;43.238;23.110;2023-12-04T08:20:17;0.30;;;0.30;;
39362;SDS011;25088;43.238;23.110;2023-12-04T08:22:42;0.30;;;0.30;;
39362;SDS011;25088;43.238;23.110;2023-12-04T08:25:10;0.30;;;0.30;;
39362;SDS011;25088;43.238;23.110;2023-12-04T08:27:36;0.30;;;0.30;;
39362;SDS011;25088;43.238;23.110;2023-12-04T08:30:01;0.30;;;0.30;;
39362;SDS011;25088;43.238;23.110;2023-12-04T08:32:29;0.30;;;0.30;;
39362;SDS011;25088;43.238;23.110;2023-12-04T08:34:55;0.30;;;0.30;;
39362;SDS011;25088;43.238;23.110;2023-12-04T08:37:20;0.20;;;0.20;;
39362;SDS011;25088;43.238;23.110;2023-12-04T08:39:46;0.20;;;0.20;;
39362;SDS011;25088;43.238;23.110;2023-12-04T08:42:11;0.20;;;0.20;;
39362;SDS011;25088;43.238;23.110;2023-12-04T08:44:37;0.20;;;0.20;;
39362;SDS011;25088;43.238;23.110;2023-12-04T08:47:03;0.17;;;0.17;;
39362;SDS011;25088;43.238;23.110;2023-12-04T08:49:28;0.10;;;0.10;;
39362;SDS011;25088;43.238;23.110;2023-12-04T08:51:54;0.10;;;0.10;;
39362;SDS011;25088;43.238;23.110;2023-12-04T08:54:19;0.10;;;0.10;;
39362;SDS011;25088;43.238;23.110;2023-12-04T08:56:45;0.10;;;0.10;;
39362;SDS011;25088;43.238;23.110;2023-12-04T08:59:11;0.10;;;0.10;;
39362;SDS011;25088;43.238;23.110;2023-12-04T09:01:38;0.20;;;0.20;;
39362;SDS011;25088;43.238;23.110;2023-12-04T09:04:03;0.13;;;0.13;;
39362;SDS011;25088;43.238;23.110;2023-12-04T09:06:29;0.15;;;0.15;;
39362;SDS011;25088;43.238;23.110;2023-12-04T09:08:55;0.10;;;0.10;;
39362;SDS011;25088;43.238;23.110;2023-12-04T09:11:20;0.10;;;0.10;;
39362;SDS011;25088;43.238;23.110;2023-12-04T09:13:45;0.10;;;0.10;;
39362;SDS011;25088;43.238;23.110;2023-12-04T09:16:11;0.10;;;0.10;;
39362;SDS011;25088;43.238;23.110;2023-12-04T09:18:36;0.10;;;0.10;;
39362;SDS011;25088;43.238;23.110;2023-12-04T09:21:02;0.10;;;0.10;;
39362;SDS011;25088;43.238;23.110;2023-12-04T09:23:28;0.20;;;0.20;;
39362;SDS011;25088;43.238;23.110;2023-12-04T09:25:53;0.10;;;0.10;;
39362;SDS011;25088;43.238;23.110;2023-12-04T09:28:18;0.10;;;0.10;;
39362;SDS011;25088;43.238;23.110;2023-12-04T09:30:44;0.10;;;0.10;;
39362;SDS011;25088;43.238;23.110;2023-12-04T09:33:09;0.10;;;0.10;;
39362;SDS011;25088;43.238;23.110;2023-12-04T09:35:35;0.10;;;0.10;;
39362;SDS011;25088;43.238;23.110;2023-12-04T09:38:00;0.15;;;0.15;;
39362;SDS011;25088;43.238;23.110;2023-12-04T09:40:26;0.10;;;0.10;;
39362;SDS011;25088;43.238;23.110;2023-12-04T09:42:51;0.10;;;0.10;;
39362;SDS011;25088;43.238;23.110;2023-12-04T09:45:18;0.10;;;0.10;;
39362;SDS011;25088;43.238;23.110;2023-12-04T09:47:45;0.10;;;0.10;;
39362;SDS011;25088;43.238;23.110;2023-12-04T09:50:12;0.10;;;0.10;;
39362;SDS011;25088;43.238;23.110;2023-12-04T09:52:39;0.10;;;0.10;;
39362;SDS011;25088;43.238;23.110;2023-12-04T09:55:05;0.10;;;0.10;;
39362;SDS011;25088;43.238;23.110;2023-12-04T09:57:31;0.10;;;0.10;;
39362;SDS011;25088;43.238;23.110;2023-12-04T09:59:56;0.10;;;0.10;;
39362;SDS011;25088;43.238;23.110;2023-12-04T10:02:25;0.10;;;0.10;;
39362;SDS011;25088;43.238;23.110;2023-12-04T10:04:51;0.10;;;0.10;;
39362;SDS011;25088;43.238;23.110;2023-12-04T10:07:17;0.10;;;0.10;;
39362;SDS011;25088;43.238;23.110;2023-12-04T10:09:42;0.20;;;0.20;;
39362;SDS011;25088;43.238;23.110;2023-12-04T10:12:08;0.20;;;0.20;;
39362;SDS011;25088;43.238;23.110;2023-12-04T10:14:35;0.20;;;0.20;;
39362;SDS011;25088;43.238;23.110;2023-12-04T10:17:10;0.10;;;0.10;;
39362;SDS011;25088;43.238;23.110;2023-12-04T10:19:39;0.10;;;0.10;;
39362;SDS011;25088;43.238;23.110;2023-12-04T10:22:04;0.10;;;0.10;;
39362;SDS011;25088;43.238;23.110;2023-12-04T10:24:35;0.10;;;0.10;;
39362;SDS011;25088;43.238;23.110;2023-12-04T10:27:03;0.10;;;0.10;;
39362;SDS011;25088;43.238;23.110;2023-12-04T10:29:47;0.10;;;0.10;;
39362;SDS011;25088;43.238;23.110;2023-12-04T10:32:20;0.10;;;0.10;;
39362;SDS011;25088;43.238;23.110;2023-12-04T10:34:46;0.10;;;0.10;;
39362;SDS011;25088;43.238;23.110;2023-12-04T10:37:12;0.10;;;0.10;;
39362;SDS011;25088;43.238;23.110;2023-12-04T10:39:48;0.10;;;0.10;;
39362;SDS011;25088;43.238;23.110;2023-12-04T10:42:25;0.10;;;0.10;;
39362;SDS011;25088;43.238;23.110;2023-12-04T10:44:52;0.10;;;0.10;;
39362;SDS011;25088;43.238;23.110;2023-12-04T10:47:20;0.10;;;0.10;;
39362;SDS011;25088;43.238;23.110;2023-12-04T10:49:48;0.10;;;0.10;;
39362;SDS011;25088;43.238;23.110;2023-12-04T10:52:15;0.10;;;0.10;;
39362;SDS011;25088;43.238;23.110;2023-12-04T10:54:41;0.10;;;0.10;;
39362;SDS011;25088;43.238;23.110;2023-12-04T10:57:07;0.10;;;0.10;;
39362;SDS011;25088;43.238;23.110;2023-12-04T10:59:36;0.10;;;0.10;;
39362;SDS011;25088;43.238;23.110;2023-12-04T11:02:04;0.10;;;0.10;;
39362;SDS011;25088;43.238;23.110;2023-12-04T11:04:33;0.10;;;0.10;;
39362;SDS011;25088;43.238;23.110;2023-12-04T11:07:02;0.10;;;0.10;;
39362;SDS011;25088;43.238;23.110;2023-12-04T11:09:31;0.10;;;0.10;;
39362;SDS011;25088;43.238;23.110;2023-12-04T11:12:02;0.10;;;0.10;;
39362;SDS011;25088;43.238;23.110;2023-12-04T11:14:34;0.10;;;0.10;;
39362;SDS011;25088;43.238;23.110;2023-12-04T11:17:04;0.10;;;0.10;;
39362;SDS011;25088;43.238;23.110;2023-12-04T11:19:43;0.10;;;0.10;;
39362;SDS011;25088;43.238;23.110;2023-12-04T11:22:17;0.10;;;0.10;;
39362;SDS011;25088;43.238;23.110;2023-12-04T11:24:46;0.10;;;0.10;;
39362;SDS011;25088;43.238;23.110;2023-12-04T11:27:14;0.10;;;0.10;;
39362;SDS011;25088;43.238;23.110;2023-12-04T11:29:41;0.10;;;0.10;;
39362;SDS011;25088;43.238;23.110;2023-12-04T11:32:07;0.10;;;0.10;;
39362;SDS011;25088;43.238;23.110;2023-12-04T11:34:46;0.10;;;0.10;;
39362;SDS011;25088;43.238;23.110;2023-12-04T11:37:12;0.10;;;0.10;;
39362;SDS011;25088;43.238;23.110;2023-12-04T11:39:38;0.10;;;0.10;;
39362;SDS011;25088;43.238;23.110;2023-12-04T11:42:07;0.10;;;0.10;;
39362;SDS011;25088;43.238;23.110;2023-12-04T11:44:34;0.10;;;0.10;;
39362;SDS011;25088;43.238;23.110;2023-12-04T11:47:04;0.10;;;0.10;;
39362;SDS011;25088;43.238;23.110;2023-12-04T11:49:31;0.10;;;0.10;;
39362;SDS011;25088;43.238;23.110;2023-12-04T11:51:58;0.10;;;0.10;;
39362;SDS011;25088;43.238;23.110;2023-12-04T11:54:26;0.10;;;0.10;;
39362;SDS011;25088;43.238;23.110;2023-12-04T11:56:56;0.10;;;0.10;;
39362;SDS011;25088;43.238;23.110;2023-12-04T11:59:44;0.00;;;0.00;;
39362;SDS011;25088;43.238;23.110;2023-12-04T12:02:10;0.10;;;0.10;;
39362;SDS011;25088;43.238;23.110;2023-12-04T12:04:36;0.10;;;0.10;;
39362;SDS011;25088;43.238;23.110;2023-12-04T12:07:03;0.10;;;0.10;;
39362;SDS011;25088;43.238;23.110;2023-12-04T12:09:30;0.10;;;0.10;;
39362;SDS011;25088;43.238;23.110;2023-12-04T12:12:03;0.10;;;0.10;;
39362;SDS011;25088;43.238;23.110;2023-12-04T12:14:29;0.10;;;0.10;;
39362;SDS011;25088;43.238;23.110;2023-12-04T12:16:55;0.10;;;0.10;;
39362;SDS011;25088;43.238;23.110;2023-12-04T12:19:23;0.10;;;0.10;;
39362;SDS011;25088;43.238;23.110;2023-12-04T12:21:49;0.10;;;0.10;;
39362;SDS011;25088;43.238;23.110;2023-12-04T12:24:16;0.10;;;0.10;;
39362;SDS011;25088;43.238;23.110;2023-12-04T12:26:43;0.10;;;0.10;;
39362;SDS011;25088;43.238;23.110;2023-12-04T12:29:09;0.10;;;0.10;;
39362;SDS011;25088;43.238;23.110;2023-12-04T12:31:34;0.10;;;0.10;;
39362;SDS011;25088;43.238;23.110;2023-12-04T12:34:00;0.10;;;0.10;;
39362;SDS011;25088;43.238;23.110;2023-12-04T12:36:25;0.10;;;0.10;;
39362;SDS011;25088;43.238;23.110;2023-12-04T12:38:51;0.10;;;0.10;;
39362;SDS011;25088;43.238;23.110;2023-12-04T12:41:16;0.10;;;0.10;;
39362;SDS011;25088;43.238;23.110;2023-12-04T12:43:42;0.10;;;0.10;;
39362;SDS011;25088;43.238;23.110;2023-12-04T12:46:08;0.10;;;0.10;;
39362;SDS011;25088;43.238;23.110;2023-12-04T12:48:35;0.10;;;0.10;;
39362;SDS011;25088;43.238;23.110;2023-12-04T12:51:02;0.17;;;0.17;;
39362;SDS011;25088;43.238;23.110;2023-12-04T12:53:28;0.20;;;0.20;;
39362;SDS011;25088;43.238;23.110;2023-12-04T12:55:57;0.20;;;0.20;;
39362;SDS011;25088;43.238;23.110;2023-12-04T12:58:25;0.20;;;0.20;;
39362;SDS011;25088;43.238;23.110;2023-12-04T13:00:50;0.20;;;0.20;;
39362;SDS011;25088;43.238;23.110;2023-12-04T13:03:16;0.20;;;0.20;;
39362;SDS011;25088;43.238;23.110;2023-12-04T13:05:42;0.20;;;0.20;;
39362;SDS011;25088;43.238;23.110;2023-12-04T13:08:07;0.10;;;0.10;;
39362;SDS011;25088;43.238;23.110;2023-12-04T13:10:33;0.10;;;0.10;;
39362;SDS011;25088;43.238;23.110;2023-12-04T13:12:58;0.10;;;0.10;;
39362;SDS011;25088;43.238;23.110;2023-12-04T13:15:25;0.10;;;0.10;;
39362;SDS011;25088;43.238;23.110;2023-12-04T13:17:51;0.10;;;0.10;;
39362;SDS011;25088;43.238;23.110;2023-12-04T13:20:16;0.10;;;0.10;;
39362;SDS011;25088;43.238;23.110;2023-12-04T13:22:43;0.10;;;0.10;;
39362;SDS011;25088;43.238;23.110;2023-12-04T13:25:08;0.10;;;0.10;;
39362;SDS011;25088;43.238;23.110;2023-12-04T13:27:36;0.10;;;0.10;;
39362;SDS011;25088;43.238;23.110;2023-12-04T13:30:07;0.10;;;0.10;;
39362;SDS011;25088;43.238;23.110;2023-12-04T13:32:36;0.10;;;0.10;;
39362;SDS011;25088;43.238;23.110;2023-12-04T13:35:02;0.10;;;0.10;;
39362;SDS011;25088;43.238;23.110;2023-12-04T13:37:31;0.10;;;0.10;;
39362;SDS011;25088;43.238;23.110;2023-12-04T13:39:58;0.10;;;0.10;;
39362;SDS011;25088;43.238;23.110;2023-12-04T13:42:26;0.10;;;0.10;;
39362;SDS011;25088;43.238;23.110;2023-12-04T13:45:11;0.10;;;0.10;;
39362;SDS011;25088;43.238;23.110;2023-12-04T13:47:37;0.10;;;0.10;;
39362;SDS011;25088;43.238;23.110;2023-12-04T13:50:04;0.10;;;0.10;;
39362;SDS011;25088;43.238;23.110;2023-12-04T13:52:31;0.10;;;0.10;;
39362;SDS011;25088;43.238;23.110;2023-12-04T13:54:59;0.20;;;0.20;;
39362;SDS011;25088;43.238;23.110;2023-12-04T13:57:25;0.20;;;0.20;;
39362;SDS011;25088;43.238;23.110;2023-12-04T14:00:00;0.20;;;0.20;;
39362;SDS011;25088;43.238;23.110;2023-12-04T14:02:26;0.20;;;0.20;;
39362;SDS011;25088;43.238;23.110;2023-12-04T14:04:52;0.20;;;0.20;;
39362;SDS011;25088;43.238;23.110;2023-12-04T14:07:18;0.25;;;0.25;;
39362;SDS011;25088;43.238;23.110;2023-12-04T14:09:43;0.30;;;0.30;;
39362;SDS011;25088;43.238;23.110;2023-12-04T14:12:10;0.22;;;0.22;;
39362;SDS011;25088;43.238;23.110;2023-12-04T14:14:36;0.30;;;0.30;;
39362;SDS011;25088;43.238;23.110;2023-12-04T14:17:02;0.30;;;0.30;;
39362;SDS011;25088;43.238;23.110;2023-12-04T14:19:29;0.30;;;0.30;;
39362;SDS011;25088;43.238;23.110;2023-12-04T14:21:55;0.30;;;0.30;;
39362;SDS011;25088;43.238;23.110;2023-12-04T14:24:21;0.30;;;0.30;;
39362;SDS011;25088;43.238;23.110;2023-12-04T14:26:47;0.30;;;0.30;;
39362;SDS011;25088;43.238;23.110;2023-12-04T14:29:13;0.30;;;0.30;;